sensor_id;sensor_type;location;lat;lon;timestamp;P1;durP1;ratioP1;P2;durP2;ratioP2
42260;SDS011;27926;48.062;7.474;2022-10-16T00:01:08;1.95;;;1.52;;
42260;SDS011;27926;48.062;7.474;2022-10-16T00:03:35;1.58;;;1.30;;
42260;SDS011;27926;48.062;7.474;2022-10-16T00:06:00;2.17;;;1.52;;
42260;SDS011;27926;48.062;7.474;2022-10-16T00:08:25;4.50;;;1.85;;
42260;SDS011;27926;48.062;7.474;2022-10-16T00:10:49;4.75;;;1.80;;
42260;SDS011;27926;48.062;7.474;2022-10-16T00:13:14;4.25;;;1.77;;
42260;SDS011;27926;48.062;7.474;2022-10-16T00:15:40;7.25;;;1.40;;
42260;SDS011;27926;48.062;7.474;2022-10-16T00:18:07;6.57;;;1.52;;
42260;SDS011;27926;48.062;7.474;2022-10-16T00:20:35;9.18;;;3.75;;
42260;SDS011;27926;48.062;7.474;2022-10-16T00:23:00;2.70;;;1.83;;
42260;SDS011;27926;48.062;7.474;2022-10-16T00:25:25;15.45;;;2.17;;
42260;SDS011;27926;48.062;7.474;2022-10-16T00:27:50;2.90;;;1.63;;
42260;SDS011;27926;48.062;7.474;2022-10-16T00:30:14;3.47;;;1.88;;
42260;SDS011;27926;48.062;7.474;2022-10-16T00:32:39;2.38;;;1.90;;
42260;SDS011;27926;48.062;7.474;2022-10-16T00:35:04;2.55;;;1.63;;
42260;SDS011;27926;48.062;7.474;2022-10-16T00:37:29;4.53;;;1.70;;
42260;SDS011;27926;48.062;7.474;2022-10-16T00:39:53;8.77;;;1.75;;
42260;SDS011;27926;48.062;7.474;2022-10-16T00:42:18;3.03;;;1.92;;
42260;SDS011;27926;48.062;7.474;2022-10-16T00:44:50;3.38;;;1.73;;
42260;SDS011;27926;48.062;7.474;2022-10-16T00:49:53;6.82;;;1.70;;
42260;SDS011;27926;48.062;7.474;2022-10-16T00:52:22;5.05;;;1.10;;
42260;SDS011;27926;48.062;7.474;2022-10-16T00:54:47;1.40;;;1.13;;
42260;SDS011;27926;48.062;7.474;2022-10-16T00:57:14;7.60;;;1.60;;
42260;SDS011;27926;48.062;7.474;2022-10-16T00:59:39;5.13;;;2.40;;
42260;SDS011;27926;48.062;7.474;2022-10-16T01:02:06;9.38;;;2.08;;
42260;SDS011;27926;48.062;7.474;2022-10-16T01:04:34;13.27;;;1.88;;
42260;SDS011;27926;48.062;7.474;2022-10-16T01:10:05;5.05;;;2.28;;
42260;SDS011;27926;48.062;7.474;2022-10-16T01:12:53;6.00;;;2.03;;
42260;SDS011;27926;48.062;7.474;2022-10-16T01:15:41;5.78;;;1.95;;
42260;SDS011;27926;48.062;7.474;2022-10-16T01:18:18;10.52;;;2.50;;
42260;SDS011;27926;48.062;7.474;2022-10-16T01:20:56;6.63;;;1.95;;
42260;SDS011;27926;48.062;7.474;2022-10-16T01:23:43;9.68;;;2.65;;
42260;SDS011;27926;48.062;7.474;2022-10-16T01:26:35;5.63;;;1.98;;
42260;SDS011;27926;48.062;7.474;2022-10-16T01:31:39;3.85;;;2.42;;
42260;SDS011;27926;48.062;7.474;2022-10-16T01:37:12;2.97;;;2.00;;
42260;SDS011;27926;48.062;7.474;2022-10-16T01:39:41;4.45;;;2.15;;
42260;SDS011;27926;48.062;7.474;2022-10-16T01:42:14;8.57;;;2.05;;
42260;SDS011;27926;48.062;7.474;2022-10-16T01:44:52;4.03;;;1.83;;
42260;SDS011;27926;48.062;7.474;2022-10-16T01:47:19;3.67;;;1.90;;
42260;SDS011;27926;48.062;7.474;2022-10-16T01:49:47;4.28;;;1.85;;
42260;SDS011;27926;48.062;7.474;2022-10-16T01:52:14;8.45;;;2.28;;
42260;SDS011;27926;48.062;7.474;2022-10-16T01:54:43;4.00;;;2.05;;
42260;SDS011;27926;48.062;7.474;2022-10-16T01:57:11;3.78;;;1.85;;
42260;SDS011;27926;48.062;7.474;2022-10-16T01:59:40;12.73;;;2.50;;
42260;SDS011;27926;48.062;7.474;2022-10-16T02:02:08;4.38;;;2.10;;
42260;SDS011;27926;48.062;7.474;2022-10-16T02:04:54;6.20;;;2.10;;
42260;SDS011;27926;48.062;7.474;2022-10-16T02:07:44;2.67;;;1.95;;
42260;SDS011;27926;48.062;7.474;2022-10-16T02:10:08;5.22;;;2.10;;
42260;SDS011;27926;48.062;7.474;2022-10-16T02:12:34;2.80;;;1.85;;
42260;SDS011;27926;48.062;7.474;2022-10-16T02:15:03;4.80;;;2.17;;
42260;SDS011;27926;48.062;7.474;2022-10-16T02:17:28;3.72;;;1.98;;
42260;SDS011;27926;48.062;7.474;2022-10-16T02:19:53;10.40;;;2.35;;
42260;SDS011;27926;48.062;7.474;2022-10-16T02:22:34;5.32;;;2.58;;
42260;SDS011;27926;48.062;7.474;2022-10-16T02:25:07;7.47;;;2.65;;
42260;SDS011;27926;48.062;7.474;2022-10-16T02:27:53;4.22;;;2.40;;
42260;SDS011;27926;48.062;7.474;2022-10-16T02:30:30;4.63;;;2.40;;
42260;SDS011;27926;48.062;7.474;2022-10-16T02:33:08;7.72;;;2.17;;
42260;SDS011;27926;48.062;7.474;2022-10-16T02:35:35;10.85;;;2.20;;
42260;SDS011;27926;48.062;7.474;2022-10-16T02:38:00;6.35;;;2.50;;
42260;SDS011;27926;48.062;7.474;2022-10-16T02:40:25;7.60;;;2.90;;
42260;SDS011;27926;48.062;7.474;2022-10-16T02:42:52;5.35;;;2.88;;
42260;SDS011;27926;48.062;7.474;2022-10-16T02:47:42;6.30;;;2.58;;
42260;SDS011;27926;48.062;7.474;2022-10-16T02:50:07;6.88;;;2.53;;
42260;SDS011;27926;48.062;7.474;2022-10-16T02:52:35;6.47;;;2.90;;
42260;SDS011;27926;48.062;7.474;2022-10-16T02:54:59;5.43;;;2.58;;
42260;SDS011;27926;48.062;7.474;2022-10-16T02:57:24;38.53;;;2.90;;
42260;SDS011;27926;48.062;7.474;2022-10-16T02:59:49;4.60;;;2.15;;
42260;SDS011;27926;48.062;7.474;2022-10-16T03:02:13;5.25;;;2.30;;
42260;SDS011;27926;48.062;7.474;2022-10-16T03:04:38;10.40;;;2.28;;
42260;SDS011;27926;48.062;7.474;2022-10-16T03:07:02;3.72;;;2.00;;
42260;SDS011;27926;48.062;7.474;2022-10-16T03:09:27;12.57;;;2.17;;
42260;SDS011;27926;48.062;7.474;2022-10-16T03:11:52;7.93;;;2.60;;
42260;SDS011;27926;48.062;7.474;2022-10-16T03:14:16;7.45;;;2.30;;
42260;SDS011;27926;48.062;7.474;2022-10-16T03:16:41;4.25;;;1.55;;
42260;SDS011;27926;48.062;7.474;2022-10-16T03:19:06;14.27;;;2.17;;
42260;SDS011;27926;48.062;7.474;2022-10-16T03:21:30;7.10;;;2.05;;
42260;SDS011;27926;48.062;7.474;2022-10-16T03:23:55;3.15;;;1.83;;
42260;SDS011;27926;48.062;7.474;2022-10-16T03:26:19;8.85;;;1.85;;
42260;SDS011;27926;48.062;7.474;2022-10-16T03:28:44;7.32;;;1.65;;
42260;SDS011;27926;48.062;7.474;2022-10-16T03:31:08;9.07;;;1.95;;
42260;SDS011;27926;48.062;7.474;2022-10-16T03:33:33;3.63;;;2.05;;
42260;SDS011;27926;48.062;7.474;2022-10-16T03:35:58;3.97;;;2.10;;
42260;SDS011;27926;48.062;7.474;2022-10-16T03:38:23;3.03;;;1.75;;
42260;SDS011;27926;48.062;7.474;2022-10-16T03:40:47;4.38;;;1.80;;
42260;SDS011;27926;48.062;7.474;2022-10-16T03:43:12;2.47;;;1.40;;
42260;SDS011;27926;48.062;7.474;2022-10-16T03:45:37;4.07;;;1.75;;
42260;SDS011;27926;48.062;7.474;2022-10-16T03:48:01;5.55;;;1.80;;
42260;SDS011;27926;48.062;7.474;2022-10-16T03:50:27;22.75;;;2.20;;
42260;SDS011;27926;48.062;7.474;2022-10-16T03:52:51;5.75;;;1.67;;
42260;SDS011;27926;48.062;7.474;2022-10-16T03:55:16;3.75;;;1.88;;
42260;SDS011;27926;48.062;7.474;2022-10-16T03:57:41;4.55;;;1.60;;
42260;SDS011;27926;48.062;7.474;2022-10-16T04:00:05;6.10;;;1.75;;
42260;SDS011;27926;48.062;7.474;2022-10-16T04:02:30;6.80;;;2.00;;
42260;SDS011;27926;48.062;7.474;2022-10-16T04:04:55;1.77;;;1.55;;
42260;SDS011;27926;48.062;7.474;2022-10-16T04:07:19;12.23;;;2.42;;
42260;SDS011;27926;48.062;7.474;2022-10-16T04:09:44;4.95;;;1.55;;
42260;SDS011;27926;48.062;7.474;2022-10-16T04:12:09;2.78;;;1.92;;
42260;SDS011;27926;48.062;7.474;2022-10-16T04:14:33;2.13;;;1.55;;
42260;SDS011;27926;48.062;7.474;2022-10-16T04:16:58;2.67;;;1.98;;
42260;SDS011;27926;48.062;7.474;2022-10-16T04:19:23;2.70;;;1.73;;
42260;SDS011;27926;48.062;7.474;2022-10-16T04:21:47;6.68;;;1.70;;
42260;SDS011;27926;48.062;7.474;2022-10-16T04:24:12;14.05;;;2.00;;
42260;SDS011;27926;48.062;7.474;2022-10-16T04:26:36;3.67;;;1.58;;
42260;SDS011;27926;48.062;7.474;2022-10-16T04:29:01;3.17;;;1.93;;
42260;SDS011;27926;48.062;7.474;2022-10-16T04:31:26;6.47;;;1.75;;
42260;SDS011;27926;48.062;7.474;2022-10-16T04:33:51;2.25;;;1.70;;
42260;SDS011;27926;48.062;7.474;2022-10-16T04:36:15;4.38;;;1.20;;
42260;SDS011;27926;48.062;7.474;2022-10-16T04:38:40;3.58;;;1.65;;
42260;SDS011;27926;48.062;7.474;2022-10-16T04:41:08;4.03;;;1.77;;
42260;SDS011;27926;48.062;7.474;2022-10-16T04:43:32;4.05;;;1.92;;
42260;SDS011;27926;48.062;7.474;2022-10-16T04:45:57;6.95;;;1.67;;
42260;SDS011;27926;48.062;7.474;2022-10-16T04:48:22;3.08;;;1.55;;
42260;SDS011;27926;48.062;7.474;2022-10-16T04:50:47;5.15;;;1.65;;
42260;SDS011;27926;48.062;7.474;2022-10-16T04:53:11;12.40;;;1.55;;
42260;SDS011;27926;48.062;7.474;2022-10-16T04:55:36;9.73;;;1.70;;
42260;SDS011;27926;48.062;7.474;2022-10-16T04:58:02;8.02;;;1.50;;
42260;SDS011;27926;48.062;7.474;2022-10-16T05:00:26;9.13;;;1.80;;
42260;SDS011;27926;48.062;7.474;2022-10-16T05:02:51;4.85;;;1.60;;
42260;SDS011;27926;48.062;7.474;2022-10-16T05:05:16;7.03;;;1.60;;
42260;SDS011;27926;48.062;7.474;2022-10-16T05:07:43;3.33;;;1.60;;
42260;SDS011;27926;48.062;7.474;2022-10-16T05:10:07;2.78;;;1.65;;
42260;SDS011;27926;48.062;7.474;2022-10-16T05:12:32;5.65;;;1.90;;
42260;SDS011;27926;48.062;7.474;2022-10-16T05:14:57;6.28;;;1.70;;
42260;SDS011;27926;48.062;7.474;2022-10-16T05:17:22;6.53;;;2.00;;
42260;SDS011;27926;48.062;7.474;2022-10-16T05:19:47;23.15;;;1.98;;
42260;SDS011;27926;48.062;7.474;2022-10-16T05:22:11;9.82;;;1.85;;
42260;SDS011;27926;48.062;7.474;2022-10-16T05:24:36;2.85;;;1.63;;
42260;SDS011;27926;48.062;7.474;2022-10-16T05:27:00;4.47;;;1.63;;
42260;SDS011;27926;48.062;7.474;2022-10-16T05:29:25;10.27;;;1.58;;
42260;SDS011;27926;48.062;7.474;2022-10-16T05:31:50;8.85;;;2.05;;
42260;SDS011;27926;48.062;7.474;2022-10-16T05:34:16;5.22;;;2.15;;
42260;SDS011;27926;48.062;7.474;2022-10-16T05:36:41;2.03;;;1.52;;
42260;SDS011;27926;48.062;7.474;2022-10-16T05:39:05;3.97;;;1.63;;
42260;SDS011;27926;48.062;7.474;2022-10-16T05:41:30;7.95;;;1.80;;
42260;SDS011;27926;48.062;7.474;2022-10-16T05:43:55;4.13;;;1.83;;
42260;SDS011;27926;48.062;7.474;2022-10-16T05:46:20;2.60;;;1.80;;
42260;SDS011;27926;48.062;7.474;2022-10-16T05:48:44;8.00;;;1.95;;
42260;SDS011;27926;48.062;7.474;2022-10-16T05:51:10;13.10;;;4.15;;
42260;SDS011;27926;48.062;7.474;2022-10-16T05:53:36;5.40;;;2.03;;
42260;SDS011;27926;48.062;7.474;2022-10-16T05:56:02;2.72;;;1.50;;
42260;SDS011;27926;48.062;7.474;2022-10-16T05:58:29;4.40;;;1.98;;
42260;SDS011;27926;48.062;7.474;2022-10-16T06:01:02;4.43;;;1.80;;
42260;SDS011;27926;48.062;7.474;2022-10-16T06:03:33;4.28;;;1.63;;
42260;SDS011;27926;48.062;7.474;2022-10-16T06:05:58;1.77;;;1.40;;
42260;SDS011;27926;48.062;7.474;2022-10-16T06:08:23;13.00;;;2.13;;
42260;SDS011;27926;48.062;7.474;2022-10-16T06:10:48;3.00;;;1.37;;
42260;SDS011;27926;48.062;7.474;2022-10-16T06:13:23;4.37;;;1.70;;
42260;SDS011;27926;48.062;7.474;2022-10-16T06:15:48;3.78;;;2.10;;
42260;SDS011;27926;48.062;7.474;2022-10-16T06:18:13;4.82;;;1.55;;
42260;SDS011;27926;48.062;7.474;2022-10-16T06:20:37;2.60;;;1.73;;
42260;SDS011;27926;48.062;7.474;2022-10-16T06:23:02;12.60;;;1.75;;
42260;SDS011;27926;48.062;7.474;2022-10-16T06:25:29;9.45;;;1.92;;
42260;SDS011;27926;48.062;7.474;2022-10-16T06:27:54;6.10;;;1.67;;
42260;SDS011;27926;48.062;7.474;2022-10-16T06:30:19;4.88;;;1.75;;
42260;SDS011;27926;48.062;7.474;2022-10-16T06:32:44;3.38;;;1.65;;
42260;SDS011;27926;48.062;7.474;2022-10-16T06:35:08;2.42;;;1.77;;
42260;SDS011;27926;48.062;7.474;2022-10-16T06:37:33;2.47;;;1.58;;
42260;SDS011;27926;48.062;7.474;2022-10-16T06:39:57;8.38;;;2.65;;
42260;SDS011;27926;48.062;7.474;2022-10-16T06:42:22;7.55;;;2.28;;
42260;SDS011;27926;48.062;7.474;2022-10-16T06:44:47;3.60;;;2.30;;
42260;SDS011;27926;48.062;7.474;2022-10-16T06:47:11;14.50;;;2.38;;
42260;SDS011;27926;48.062;7.474;2022-10-16T06:49:36;14.55;;;2.28;;
42260;SDS011;27926;48.062;7.474;2022-10-16T06:52:00;7.03;;;1.90;;
42260;SDS011;27926;48.062;7.474;2022-10-16T06:54:25;2.27;;;1.70;;
42260;SDS011;27926;48.062;7.474;2022-10-16T06:56:50;9.00;;;1.58;;
42260;SDS011;27926;48.062;7.474;2022-10-16T06:59:15;3.67;;;2.10;;
42260;SDS011;27926;48.062;7.474;2022-10-16T07:01:40;7.28;;;2.03;;
42260;SDS011;27926;48.062;7.474;2022-10-16T07:04:04;3.58;;;1.67;;
42260;SDS011;27926;48.062;7.474;2022-10-16T07:06:30;3.15;;;1.48;;
42260;SDS011;27926;48.062;7.474;2022-10-16T07:08:57;8.68;;;2.30;;
42260;SDS011;27926;48.062;7.474;2022-10-16T07:11:22;3.65;;;1.63;;
42260;SDS011;27926;48.062;7.474;2022-10-16T07:13:47;2.63;;;1.90;;
42260;SDS011;27926;48.062;7.474;2022-10-16T07:16:14;9.05;;;1.60;;
42260;SDS011;27926;48.062;7.474;2022-10-16T07:18:41;3.15;;;1.60;;
42260;SDS011;27926;48.062;7.474;2022-10-16T07:21:09;7.35;;;1.60;;
42260;SDS011;27926;48.062;7.474;2022-10-16T07:23:35;5.72;;;1.70;;
42260;SDS011;27926;48.062;7.474;2022-10-16T07:26:00;3.93;;;1.50;;
42260;SDS011;27926;48.062;7.474;2022-10-16T07:28:25;7.60;;;1.85;;
42260;SDS011;27926;48.062;7.474;2022-10-16T07:30:50;19.15;;;1.98;;
42260;SDS011;27926;48.062;7.474;2022-10-16T07:33:14;3.15;;;1.60;;
42260;SDS011;27926;48.062;7.474;2022-10-16T07:35:47;6.53;;;2.08;;
42260;SDS011;27926;48.062;7.474;2022-10-16T07:38:15;8.30;;;1.65;;
42260;SDS011;27926;48.062;7.474;2022-10-16T07:40:40;10.43;;;1.83;;
42260;SDS011;27926;48.062;7.474;2022-10-16T07:43:04;7.38;;;1.58;;
42260;SDS011;27926;48.062;7.474;2022-10-16T07:45:29;2.22;;;1.52;;
42260;SDS011;27926;48.062;7.474;2022-10-16T07:47:53;2.55;;;1.60;;
42260;SDS011;27926;48.062;7.474;2022-10-16T07:50:19;5.75;;;1.48;;
42260;SDS011;27926;48.062;7.474;2022-10-16T07:52:43;4.80;;;1.50;;
42260;SDS011;27926;48.062;7.474;2022-10-16T07:55:08;9.43;;;1.38;;
42260;SDS011;27926;48.062;7.474;2022-10-16T07:57:32;4.20;;;1.85;;
42260;SDS011;27926;48.062;7.474;2022-10-16T07:59:57;5.28;;;1.92;;
42260;SDS011;27926;48.062;7.474;2022-10-16T08:02:22;9.25;;;1.70;;
42260;SDS011;27926;48.062;7.474;2022-10-16T08:04:46;4.50;;;1.60;;
42260;SDS011;27926;48.062;7.474;2022-10-16T08:07:11;3.97;;;1.80;;
42260;SDS011;27926;48.062;7.474;2022-10-16T08:09:36;8.38;;;1.60;;
42260;SDS011;27926;48.062;7.474;2022-10-16T08:12:00;5.43;;;2.05;;
42260;SDS011;27926;48.062;7.474;2022-10-16T08:14:26;22.00;;;2.38;;
42260;SDS011;27926;48.062;7.474;2022-10-16T08:16:50;6.25;;;1.45;;
42260;SDS011;27926;48.062;7.474;2022-10-16T08:19:15;9.65;;;1.63;;
42260;SDS011;27926;48.062;7.474;2022-10-16T08:21:40;5.38;;;2.10;;
42260;SDS011;27926;48.062;7.474;2022-10-16T08:24:04;13.13;;;1.67;;
42260;SDS011;27926;48.062;7.474;2022-10-16T08:26:29;14.93;;;1.38;;
42260;SDS011;27926;48.062;7.474;2022-10-16T08:28:54;9.07;;;1.65;;
42260;SDS011;27926;48.062;7.474;2022-10-16T08:31:22;12.32;;;1.85;;
42260;SDS011;27926;48.062;7.474;2022-10-16T08:33:47;3.43;;;1.50;;
42260;SDS011;27926;48.062;7.474;2022-10-16T08:36:12;10.27;;;1.70;;
42260;SDS011;27926;48.062;7.474;2022-10-16T08:38:37;2.53;;;1.30;;
42260;SDS011;27926;48.062;7.474;2022-10-16T08:47:09;3.75;;;1.63;;
42260;SDS011;27926;48.062;7.474;2022-10-16T08:50:39;8.88;;;1.40;;
42260;SDS011;27926;48.062;7.474;2022-10-16T08:52:49;2.55;;;1.20;;
42260;SDS011;27926;48.062;7.474;2022-10-16T08:55:23;7.00;;;1.33;;
42260;SDS011;27926;48.062;7.474;2022-10-16T08:57:56;3.17;;;1.65;;
42260;SDS011;27926;48.062;7.474;2022-10-16T09:00:21;14.30;;;1.52;;
42260;SDS011;27926;48.062;7.474;2022-10-16T09:11:07;3.30;;;1.35;;
42260;SDS011;27926;48.062;7.474;2022-10-16T09:13:56;6.40;;;1.30;;
42260;SDS011;27926;48.062;7.474;2022-10-16T09:16:33;2.45;;;1.40;;
42260;SDS011;27926;48.062;7.474;2022-10-16T09:19:22;3.42;;;1.33;;
42260;SDS011;27926;48.062;7.474;2022-10-16T09:21:52;11.70;;;2.10;;
42260;SDS011;27926;48.062;7.474;2022-10-16T09:24:19;6.65;;;1.63;;
42260;SDS011;27926;48.062;7.474;2022-10-16T09:26:45;3.50;;;1.80;;
42260;SDS011;27926;48.062;7.474;2022-10-16T09:29:14;2.80;;;1.65;;
42260;SDS011;27926;48.062;7.474;2022-10-16T09:31:40;3.42;;;1.92;;
42260;SDS011;27926;48.062;7.474;2022-10-16T09:34:05;3.97;;;1.65;;
42260;SDS011;27926;48.062;7.474;2022-10-16T09:36:39;5.75;;;1.60;;
42260;SDS011;27926;48.062;7.474;2022-10-16T09:39:08;6.80;;;1.38;;
42260;SDS011;27926;48.062;7.474;2022-10-16T09:41:36;3.08;;;1.30;;
42260;SDS011;27926;48.062;7.474;2022-10-16T09:44:03;0.85;;;0.82;;
42260;SDS011;27926;48.062;7.474;2022-10-16T09:48:59;13.80;;;1.57;;
42260;SDS011;27926;48.062;7.474;2022-10-16T09:51:26;8.57;;;1.30;;
42260;SDS011;27926;48.062;7.474;2022-10-16T09:53:55;12.80;;;1.20;;
42260;SDS011;27926;48.062;7.474;2022-10-16T09:56:23;2.03;;;1.15;;
42260;SDS011;27926;48.062;7.474;2022-10-16T09:59:01;6.78;;;1.30;;
42260;SDS011;27926;48.062;7.474;2022-10-16T10:01:36;2.40;;;0.95;;
42260;SDS011;27926;48.062;7.474;2022-10-16T10:04:04;2.10;;;1.20;;
42260;SDS011;27926;48.062;7.474;2022-10-16T10:11:41;3.40;;;1.03;;
42260;SDS011;27926;48.062;7.474;2022-10-16T10:14:20;2.97;;;1.20;;
42260;SDS011;27926;48.062;7.474;2022-10-16T10:17:09;3.67;;;1.08;;
42260;SDS011;27926;48.062;7.474;2022-10-16T10:19:49;2.40;;;1.15;;
42260;SDS011;27926;48.062;7.474;2022-10-16T10:30:15;2.08;;;0.68;;
42260;SDS011;27926;48.062;7.474;2022-10-16T10:35:49;5.97;;;1.00;;
42260;SDS011;27926;48.062;7.474;2022-10-16T10:38:39;1.35;;;0.90;;
42260;SDS011;27926;48.062;7.474;2022-10-16T10:57:48;4.32;;;1.38;;
42260;SDS011;27926;48.062;7.474;2022-10-16T11:08:30;2.33;;;0.80;;
42260;SDS011;27926;48.062;7.474;2022-10-16T11:11:17;2.75;;;0.98;;
42260;SDS011;27926;48.062;7.474;2022-10-16T11:16:39;1.55;;;0.93;;
42260;SDS011;27926;48.062;7.474;2022-10-16T11:19:26;8.40;;;0.70;;
42260;SDS011;27926;48.062;7.474;2022-10-16T11:22:00;1.63;;;0.80;;
42260;SDS011;27926;48.062;7.474;2022-10-16T11:24:44;3.70;;;0.70;;
42260;SDS011;27926;48.062;7.474;2022-10-16T11:27:15;1.48;;;0.70;;
42260;SDS011;27926;48.062;7.474;2022-10-16T11:29:49;1.80;;;1.00;;
42260;SDS011;27926;48.062;7.474;2022-10-16T11:32:36;0.95;;;0.70;;
42260;SDS011;27926;48.062;7.474;2022-10-16T11:35:18;5.85;;;1.05;;
42260;SDS011;27926;48.062;7.474;2022-10-16T11:37:58;10.80;;;1.05;;
42260;SDS011;27926;48.062;7.474;2022-10-16T11:40:28;4.07;;;1.10;;
42260;SDS011;27926;48.062;7.474;2022-10-16T11:42:59;1.83;;;0.82;;
42260;SDS011;27926;48.062;7.474;2022-10-16T11:45:40;2.88;;;1.00;;
42260;SDS011;27926;48.062;7.474;2022-10-16T11:53:29;1.65;;;1.00;;
42260;SDS011;27926;48.062;7.474;2022-10-16T11:56:03;1.27;;;0.68;;
42260;SDS011;27926;48.062;7.474;2022-10-16T11:58:33;7.93;;;0.90;;
42260;SDS011;27926;48.062;7.474;2022-10-16T12:03:40;4.65;;;1.00;;
42260;SDS011;27926;48.062;7.474;2022-10-16T12:08:47;1.95;;;0.80;;
42260;SDS011;27926;48.062;7.474;2022-10-16T12:13:52;3.78;;;1.00;;
42260;SDS011;27926;48.062;7.474;2022-10-16T12:16:37;3.22;;;1.13;;
42260;SDS011;27926;48.062;7.474;2022-10-16T12:19:15;2.20;;;1.27;;
42260;SDS011;27926;48.062;7.474;2022-10-16T12:21:41;9.25;;;0.90;;
42260;SDS011;27926;48.062;7.474;2022-10-16T12:24:19;3.30;;;1.08;;
42260;SDS011;27926;48.062;7.474;2022-10-16T12:26:45;2.58;;;1.08;;
42260;SDS011;27926;48.062;7.474;2022-10-16T12:29:33;1.98;;;1.00;;
42260;SDS011;27926;48.062;7.474;2022-10-16T12:32:02;1.25;;;1.15;;
42260;SDS011;27926;48.062;7.474;2022-10-16T12:34:29;2.83;;;0.75;;
42260;SDS011;27926;48.062;7.474;2022-10-16T12:37:12;1.45;;;0.90;;
42260;SDS011;27926;48.062;7.474;2022-10-16T12:39:43;2.08;;;0.90;;
42260;SDS011;27926;48.062;7.474;2022-10-16T12:42:30;2.80;;;1.33;;
42260;SDS011;27926;48.062;7.474;2022-10-16T12:44:57;1.38;;;0.98;;
42260;SDS011;27926;48.062;7.474;2022-10-16T12:47:23;2.70;;;1.30;;
42260;SDS011;27926;48.062;7.474;2022-10-16T12:50:00;8.75;;;1.50;;
42260;SDS011;27926;48.062;7.474;2022-10-16T12:52:31;7.10;;;1.47;;
42260;SDS011;27926;48.062;7.474;2022-10-16T12:55:00;2.28;;;0.82;;
42260;SDS011;27926;48.062;7.474;2022-10-16T13:00:32;11.55;;;0.80;;
42260;SDS011;27926;48.062;7.474;2022-10-16T13:14:30;3.37;;;1.57;;
42260;SDS011;27926;48.062;7.474;2022-10-16T13:30:19;7.63;;;1.60;;
42260;SDS011;27926;48.062;7.474;2022-10-16T13:32:45;4.60;;;1.43;;
42260;SDS011;27926;48.062;7.474;2022-10-16T13:35:31;8.32;;;1.50;;
42260;SDS011;27926;48.062;7.474;2022-10-16T13:38:04;1.98;;;1.25;;
42260;SDS011;27926;48.062;7.474;2022-10-16T13:40:36;7.38;;;1.23;;
42260;SDS011;27926;48.062;7.474;2022-10-16T13:43:11;2.40;;;1.15;;
42260;SDS011;27926;48.062;7.474;2022-10-16T13:45:36;2.00;;;1.20;;
42260;SDS011;27926;48.062;7.474;2022-10-16T13:48:09;1.60;;;0.90;;
42260;SDS011;27926;48.062;7.474;2022-10-16T13:50:36;15.02;;;1.45;;
42260;SDS011;27926;48.062;7.474;2022-10-16T13:53:09;5.23;;;1.63;;
42260;SDS011;27926;48.062;7.474;2022-10-16T13:55:38;2.13;;;1.20;;
42260;SDS011;27926;48.062;7.474;2022-10-16T13:58:12;1.17;;;0.83;;
42260;SDS011;27926;48.062;7.474;2022-10-16T14:00:40;3.40;;;0.95;;
42260;SDS011;27926;48.062;7.474;2022-10-16T14:03:16;7.13;;;1.23;;
42260;SDS011;27926;48.062;7.474;2022-10-16T14:05:45;14.27;;;1.67;;
42260;SDS011;27926;48.062;7.474;2022-10-16T14:08:12;5.30;;;1.08;;
42260;SDS011;27926;48.062;7.474;2022-10-16T14:10:37;3.13;;;1.23;;
42260;SDS011;27926;48.062;7.474;2022-10-16T14:13:04;8.20;;;0.95;;
42260;SDS011;27926;48.062;7.474;2022-10-16T14:15:31;4.10;;;0.80;;
42260;SDS011;27926;48.062;7.474;2022-10-16T14:17:57;1.38;;;0.90;;
42260;SDS011;27926;48.062;7.474;2022-10-16T14:20:24;3.90;;;1.02;;
42260;SDS011;27926;48.062;7.474;2022-10-16T14:23:04;3.67;;;1.02;;
42260;SDS011;27926;48.062;7.474;2022-10-16T14:28:37;5.00;;;0.90;;
42260;SDS011;27926;48.062;7.474;2022-10-16T14:31:19;1.33;;;0.82;;
42260;SDS011;27926;48.062;7.474;2022-10-16T14:33:46;3.35;;;0.73;;
42260;SDS011;27926;48.062;7.474;2022-10-16T14:38:40;2.83;;;1.27;;
42260;SDS011;27926;48.062;7.474;2022-10-16T14:41:06;2.65;;;0.70;;
42260;SDS011;27926;48.062;7.474;2022-10-16T14:46:01;1.08;;;0.90;;
42260;SDS011;27926;48.062;7.474;2022-10-16T14:48:28;4.85;;;0.82;;
42260;SDS011;27926;48.062;7.474;2022-10-16T14:50:53;1.87;;;0.90;;
42260;SDS011;27926;48.062;7.474;2022-10-16T14:53:17;3.73;;;0.90;;
42260;SDS011;27926;48.062;7.474;2022-10-16T14:55:42;0.80;;;0.60;;
42260;SDS011;27926;48.062;7.474;2022-10-16T14:58:17;4.50;;;0.65;;
42260;SDS011;27926;48.062;7.474;2022-10-16T15:00:44;3.33;;;0.90;;
42260;SDS011;27926;48.062;7.474;2022-10-16T15:03:09;0.67;;;0.67;;
42260;SDS011;27926;48.062;7.474;2022-10-16T15:05:33;5.93;;;1.00;;
42260;SDS011;27926;48.062;7.474;2022-10-16T15:07:58;2.13;;;0.77;;
42260;SDS011;27926;48.062;7.474;2022-10-16T15:10:23;1.70;;;1.00;;
42260;SDS011;27926;48.062;7.474;2022-10-16T15:12:51;3.00;;;0.70;;
42260;SDS011;27926;48.062;7.474;2022-10-16T15:17:46;1.10;;;0.93;;
42260;SDS011;27926;48.062;7.474;2022-10-16T15:20:12;0.88;;;0.73;;
42260;SDS011;27926;48.062;7.474;2022-10-16T15:22:36;0.50;;;0.50;;
42260;SDS011;27926;48.062;7.474;2022-10-16T15:25:01;0.83;;;0.70;;
42260;SDS011;27926;48.062;7.474;2022-10-16T15:27:26;0.75;;;0.60;;
42260;SDS011;27926;48.062;7.474;2022-10-16T15:29:51;2.83;;;0.60;;
42260;SDS011;27926;48.062;7.474;2022-10-16T15:32:15;0.83;;;0.43;;
42260;SDS011;27926;48.062;7.474;2022-10-16T15:34:40;1.57;;;0.90;;
42260;SDS011;27926;48.062;7.474;2022-10-16T15:37:04;2.00;;;0.70;;
42260;SDS011;27926;48.062;7.474;2022-10-16T15:39:29;1.63;;;0.90;;
42260;SDS011;27926;48.062;7.474;2022-10-16T15:41:54;0.97;;;0.70;;
42260;SDS011;27926;48.062;7.474;2022-10-16T15:44:19;1.10;;;0.70;;
42260;SDS011;27926;48.062;7.474;2022-10-16T15:46:45;2.42;;;1.17;;
42260;SDS011;27926;48.062;7.474;2022-10-16T15:49:11;7.97;;;1.05;;
42260;SDS011;27926;48.062;7.474;2022-10-16T15:51:37;2.83;;;0.65;;
42260;SDS011;27926;48.062;7.474;2022-10-16T15:54:03;3.40;;;0.90;;
42260;SDS011;27926;48.062;7.474;2022-10-16T15:56:28;0.93;;;0.70;;
42260;SDS011;27926;48.062;7.474;2022-10-16T15:58:53;3.20;;;0.83;;
42260;SDS011;27926;48.062;7.474;2022-10-16T16:01:18;0.60;;;0.60;;
42260;SDS011;27926;48.062;7.474;2022-10-16T16:03:42;1.27;;;0.67;;
42260;SDS011;27926;48.062;7.474;2022-10-16T16:06:09;0.80;;;0.60;;
42260;SDS011;27926;48.062;7.474;2022-10-16T16:08:36;0.70;;;0.70;;
42260;SDS011;27926;48.062;7.474;2022-10-16T16:11:01;0.60;;;0.60;;
42260;SDS011;27926;48.062;7.474;2022-10-16T16:15:51;4.70;;;0.70;;
42260;SDS011;27926;48.062;7.474;2022-10-16T16:18:16;3.97;;;0.90;;
42260;SDS011;27926;48.062;7.474;2022-10-16T16:20:40;5.70;;;0.80;;
42260;SDS011;27926;48.062;7.474;2022-10-16T16:23:05;1.17;;;0.77;;
42260;SDS011;27926;48.062;7.474;2022-10-16T16:25:29;17.90;;;1.17;;
42260;SDS011;27926;48.062;7.474;2022-10-16T16:27:54;2.73;;;0.80;;
42260;SDS011;27926;48.062;7.474;2022-10-16T16:30:19;1.43;;;0.80;;
42260;SDS011;27926;48.062;7.474;2022-10-16T16:32:44;0.90;;;0.70;;
42260;SDS011;27926;48.062;7.474;2022-10-16T16:35:08;1.70;;;0.60;;
42260;SDS011;27926;48.062;7.474;2022-10-16T16:37:34;0.85;;;0.68;;
42260;SDS011;27926;48.062;7.474;2022-10-16T16:39:59;4.80;;;1.10;;
42260;SDS011;27926;48.062;7.474;2022-10-16T16:42:24;4.63;;;1.83;;
42260;SDS011;27926;48.062;7.474;2022-10-16T16:44:50;5.82;;;1.40;;
42260;SDS011;27926;48.062;7.474;2022-10-16T16:47:15;2.47;;;1.13;;
42260;SDS011;27926;48.062;7.474;2022-10-16T16:49:39;3.23;;;0.90;;
42260;SDS011;27926;48.062;7.474;2022-10-16T16:52:04;2.33;;;1.35;;
42260;SDS011;27926;48.062;7.474;2022-10-16T16:54:29;12.68;;;1.15;;
42260;SDS011;27926;48.062;7.474;2022-10-16T16:56:53;1.23;;;0.82;;
42260;SDS011;27926;48.062;7.474;2022-10-16T16:59:19;2.88;;;1.17;;